aviador You're here:

YCBA Decoded Metar

in
Report Time2017-09-24 22:00:00
UTC Time2017-09-24 23:00:01
Flight Rules vfr VFR
Wind160° at 06 kt
W.Decomp.*RWY 17: 5.9 kt HW 1 kt LCW
RWY 23: 2.1 kt HW 5.6 kt LCW
W.Rank160° ranks 17
Current wind is below 160° avg. (6.6)
Visibility9999 m
Phenomena:N/A
Clouds:N/A
Expected CloudBase > 6,800 ft AGL from Temp-Dew spread
CeilingNone
Temp16°C
Dew Point-1°C (31% RH)
AAT11.7°C
QNH1013 hPa
Raw Report
METAR YCBA 242200Z AUTO 16006KT 9999 // NCD 16/M01 Q1013=

Extra information for YCBA:More info

Social comments